Boeing 777-206ER from KLM at Amsterdam.
 Regi:PH-BQM  LARGER
 MSN Year:34712 2006
 Date of picture:2007-04-26 10:30
 Position:06
 Flight: ARR CPT KL 598 Cape Town International Airport South Africa
 Logs:
 Metar 26/04/2007 10:25 METAR EHAM 261025Z 01006KT 310V060 6000 HZ NSC 22/14 Q1018 BECMG 8000=
 Hits: 97 ID: 1425

Debriefing: Photographed movements of Airports in NW-Europe.
The images of our site attendant is in authorisation from Queen of Sky.
Copying of images of this site have been prohibited in which manner without the authorisation of the photographer.
In behalf of the crew :"Thank you visiting us" - Contact
Factsheets Boeing, 777-206ER, KLM, made by De Plane! © 2006 - 2022 All rights reserved


.